Time;durP1;ratioP1;P1;durP2;ratioP2;P2;SDS_P1;SDS_P2;PMS_P1;PMS_P2;Temp;Humidity;BMP_temperature;BMP_pressure;BME280_temperature;BME280_humidity;BME280_pressure;Samples;Min_cycle;Max_cycle;Signal;HPM_P1;HPM_P2
2024/03/21 00:02:22;;;;;;;42.50;14.02;;;;;;;3.23;100.00;101637.13;5065681;28;20044;-73
2024/03/21 00:04:48;;;;;;;35.78;13.07;;;;;;;3.12;100.00;101610.63;5065020;28;20029;-73
2024/03/21 00:07:14;;;;;;;39.72;13.25;;;;;;;3.11;100.00;101605.41;5066542;28;20058;-73
2024/03/21 00:09:40;;;;;;;38.88;12.27;;;;;;;3.26;100.00;101630.72;5065475;28;20092;-72
2024/03/21 00:12:06;;;;;;;36.90;11.95;;;;;;;3.25;100.00;101632.53;5064892;28;20036;-73
2024/03/21 00:14:33;;;;;;;33.13;11.30;;;;;;;3.28;100.00;101624.28;5065555;28;20084;-72
2024/03/21 00:16:58;;;;;;;32.35;9.55;;;;;;;3.30;100.00;101619.66;5055881;28;20060;-73
2024/03/21 00:19:23;;;;;;;35.63;10.30;;;;;;;3.36;100.00;101620.13;5045209;28;20037;-73
2024/03/21 00:21:50;;;;;;;28.95;10.02;;;;;;;3.18;100.00;101594.16;5043398;28;20029;-73
2024/03/21 00:24:16;;;;;;;37.40;10.13;;;;;;;3.39;100.00;101628.69;5058602;28;20029;-73
2024/03/21 00:26:41;;;;;;;34.08;10.45;;;;;;;3.41;100.00;101628.53;5043638;28;20029;-73
2024/03/21 00:29:07;;;;;;;35.10;9.95;;;;;;;3.39;100.00;101634.00;5043321;28;20427;-72
2024/03/21 00:31:33;;;;;;;38.80;11.20;;;;;;;3.39;100.00;101630.50;5043777;28;20030;-74
2024/03/21 00:33:58;;;;;;;37.10;10.65;;;;;;;3.39;100.00;101635.84;5042935;28;20013;-73
2024/03/21 00:36:24;;;;;;;45.50;10.85;;;;;;;3.38;100.00;101629.66;5043403;28;20147;-73
2024/03/21 00:38:49;;;;;;;33.72;10.77;;;;;;;3.41;100.00;101623.22;5043513;28;20104;-73
2024/03/21 00:41:15;;;;;;;39.10;10.10;;;;;;;3.40;100.00;101625.03;5059022;28;20075;-73
2024/03/21 00:43:40;;;;;;;33.72;9.10;;;;;;;3.40;100.00;101619.72;5058308;28;20034;-73
2024/03/21 00:46:05;;;;;;;39.08;9.98;;;;;;;3.43;100.00;101613.31;5059471;28;20037;-72
2024/03/21 00:48:31;;;;;;;31.40;9.18;;;;;;;3.43;100.00;101616.81;5040245;28;20048;-73
2024/03/21 00:50:56;;;;;;;33.83;8.80;;;;;;;3.43;100.00;101613.31;5041988;28;20496;-73
2024/03/21 00:53:21;;;;;;;33.97;9.90;;;;;;;3.45;100.00;101608.69;5045053;28;20036;-75
2024/03/21 00:55:47;;;;;;;38.58;10.35;;;;;;;3.51;100.00;101614.34;5044685;28;20048;-73
2024/03/21 00:58:12;;;;;;;36.72;10.40;;;;;;;3.53;100.00;101611.53;5044344;28;20034;-73
2024/03/21 01:00:38;;;;;;;37.13;12.15;;;;;;;3.51;100.00;101614.34;5043352;28;20063;-73
2024/03/21 01:03:03;;;;;;;37.40;10.63;;;;;;;3.54;100.00;101615.84;5044516;28;20033;-73
2024/03/21 01:05:29;;;;;;;35.58;11.52;;;;;;;3.56;100.00;101618.41;5059513;28;20036;-73
2024/03/21 01:07:55;;;;;;;34.33;11.30;;;;;;;3.58;100.00;101611.16;5043829;28;20064;-73
2024/03/21 01:10:21;;;;;;;43.60;12.25;;;;;;;3.59;100.00;101611.00;5044606;28;20033;-73
2024/03/21 01:12:46;;;;;;;43.13;12.77;;;;;;;3.55;100.00;101603.44;5043138;28;20072;-73
2024/03/21 01:15:12;;;;;;;47.42;13.98;;;;;;;3.61;100.00;101609.06;5044150;28;20025;-73
2024/03/21 01:17:37;;;;;;;45.33;13.32;;;;;;;3.63;100.00;101608.91;5042741;28;20034;-73
2024/03/21 01:20:06;;;;;;;48.05;14.30;;;;;;;3.52;100.00;101592.06;5043046;28;20033;-72
2024/03/21 01:22:31;;;;;;;50.17;15.05;;;;;;;3.64;100.00;101598.13;5043457;28;20033;-73
2024/03/21 01:24:57;;;;;;;61.38;15.80;;;;;;;3.65;100.00;101605.13;5043613;28;20032;-74
2024/03/21 01:27:22;;;;;;;52.13;15.60;;;;;;;3.66;100.00;101604.16;5042644;28;20106;-74
2024/03/21 01:29:48;;;;;;;58.88;15.93;;;;;;;3.67;100.00;101594.34;5043550;28;20089;-73
2024/03/21 01:32:13;;;;;;;53.67;15.40;;;;;;;3.67;100.00;101587.19;5041663;28;20083;-73
2024/03/21 01:34:39;;;;;;;58.22;16.05;;;;;;;3.67;100.00;101581.88;5040755;28;20426;-73
2024/03/21 01:37:05;;;;;;;57.55;15.90;;;;;;;3.67;100.00;101583.69;5040276;28;20040;-73
2024/03/21 01:39:31;;;;;;;66.25;16.30;;;;;;;3.66;100.00;101582.88;5040834;28;20461;-73
2024/03/21 01:41:56;;;;;;;58.17;16.15;;;;;;;3.61;100.00;101566.47;5040744;28;20029;-73
2024/03/21 01:44:21;;;;;;;58.78;15.63;;;;;;;3.67;100.00;101581.03;5041964;28;20048;-72
2024/03/21 01:46:47;;;;;;;63.72;16.98;;;;;;;3.67;100.00;101584.53;5040934;28;20073;-72
2024/03/21 01:49:14;;;;;;;59.72;17.25;;;;;;;3.52;100.00;101554.81;5040554;28;20085;-73
2024/03/21 01:51:41;;;;;;;64.22;16.38;;;;;;;3.68;100.00;101574.75;5041562;28;20029;-73
2024/03/21 01:54:08;;;;;;;55.72;15.63;;;;;;;3.71;100.00;101574.50;5041522;28;20514;-73
2024/03/21 01:56:37;;;;;;;55.00;15.68;;;;;;;3.72;100.00;101574.34;5041283;28;20025;-73
2024/03/21 01:59:03;;;;;;;61.40;15.90;;;;;;;3.72;100.00;101573.50;5040935;28;20041;-74
2024/03/21 02:01:31;;;;;;;58.03;15.70;;;;;;;3.70;100.00;101570.13;5047471;28;20655;-73
2024/03/21 02:03:59;;;;;;;64.63;16.23;;;;;;;3.73;100.00;101573.34;5046706;28;20033;-73
2024/03/21 02:06:25;;;;;;;59.60;15.93;;;;;;;3.69;100.00;101553.31;5042765;28;20169;-74
2024/03/21 02:08:54;;;;;;;57.60;15.10;;;;;;;3.75;100.00;101557.25;5043529;28;20288;-73
2024/03/21 02:11:21;;;;;;;59.63;14.93;;;;;;;3.74;100.00;101569.72;5042131;28;20370;-73
2024/03/21 02:13:47;;;;;;;63.25;15.45;;;;;;;3.76;100.00;101570.41;5043761;28;20033;-73
2024/03/21 02:16:13;;;;;;;55.67;14.93;;;;;;;3.75;100.00;101566.09;5058619;28;20021;-73
2024/03/21 02:18:39;;;;;;;62.10;15.90;;;;;;;3.76;100.00;101565.09;5043486;28;20029;-73
2024/03/21 02:21:06;;;;;;;61.83;15.32;;;;;;;3.76;100.00;101565.09;5042218;28;20033;-74
2024/03/21 02:23:33;;;;;;;58.03;15.23;;;;;;;3.78;100.00;101559.66;5041928;28;20033;-73
2024/03/21 02:25:59;;;;;;;57.65;14.82;;;;;;;3.80;100.00;101564.81;5042927;28;20048;-73
2024/03/21 02:28:25;;;;;;;60.38;15.32;;;;;;;3.79;100.00;101565.81;5039720;28;20528;-74
2024/03/21 02:30:52;;;;;;;56.28;15.57;;;;;;;3.80;100.00;101576.31;5040084;28;20030;-74
2024/03/21 02:33:19;;;;;;;50.63;14.60;;;;;;;3.83;100.00;101585.84;5040323;28;20090;-73
2024/03/21 02:35:44;;;;;;;51.47;14.85;;;;;;;3.64;100.00;101555.56;5040266;28;20119;-74
2024/03/21 02:38:09;;;;;;;52.97;15.10;;;;;;;3.87;100.00;101587.25;5040843;28;20033;-73
2024/03/21 02:40:35;;;;;;;57.13;15.43;;;;;;;3.90;100.00;101584.31;5041107;28;20563;-73
2024/03/21 02:43:01;;;;;;;50.28;15.32;;;;;;;3.87;100.00;101577.44;5041630;28;20104;-74
2024/03/21 02:45:26;;;;;;;60.72;15.35;;;;;;;3.90;100.00;101581.66;5040868;28;20037;-73
2024/03/21 02:47:51;;;;;;;57.97;15.00;;;;;;;3.88;100.00;101588.97;5057150;28;20034;-71
2024/03/21 02:50:17;;;;;;;63.05;16.70;;;;;;;3.74;100.00;101569.72;5040663;28;20045;-74
2024/03/21 02:52:42;;;;;;;54.05;14.45;;;;;;;3.83;100.00;101586.69;5041453;28;20033;-73
2024/03/21 02:55:07;;;;;;;57.13;15.27;;;;;;;3.81;100.00;101572.69;5040196;28;20105;-74
2024/03/21 02:57:33;;;;;;;58.47;15.27;;;;;;;3.79;100.00;101573.81;5040495;28;20056;-73
2024/03/21 02:59:58;;;;;;;45.97;14.02;;;;;;;3.78;100.00;101580.13;5040552;28;20057;-73
2024/03/21 03:02:25;;;;;;;59.20;16.00;;;;;;;3.79;100.00;101579.97;5041401;28;20441;-73
2024/03/21 03:04:50;;;;;;;60.40;16.20;;;;;;;3.82;100.00;101582.34;5041439;28;20035;-73
2024/03/21 03:07:16;;;;;;;50.65;14.57;;;;;;;3.83;100.00;101575.22;5041404;28;20068;-73
2024/03/21 03:09:42;;;;;;;53.15;14.75;;;;;;;3.78;100.00;101554.34;5041753;28;20048;-74
2024/03/21 03:12:07;;;;;;;48.05;14.85;;;;;;;3.80;100.00;101562.16;5046171;28;20048;-71
2024/03/21 03:14:33;;;;;;;60.85;15.82;;;;;;;3.86;100.00;101570.44;5061191;28;20025;-72
2024/03/21 03:16:58;;;;;;;62.45;15.23;;;;;;;3.86;100.00;101565.13;5045255;28;20029;-72
2024/03/21 03:19:24;;;;;;;61.85;15.23;;;;;;;3.84;100.00;101575.09;5045271;28;20100;-72
2024/03/21 03:21:49;;;;;;;70.22;15.23;;;;;;;3.84;100.00;101568.91;5045787;28;20052;-72
2024/03/21 03:24:14;;;;;;;57.58;14.40;;;;;;;3.83;100.00;101561.91;5044848;28;20052;-72
2024/03/21 03:26:40;;;;;;;57.63;14.77;;;;;;;3.83;100.00;101576.03;5046019;28;20038;-72
2024/03/21 03:29:05;;;;;;;56.45;14.90;;;;;;;3.84;100.00;101572.44;5046088;28;20033;-73
2024/03/21 03:31:31;;;;;;;51.50;14.23;;;;;;;3.84;100.00;101575.09;5045504;28;20060;-72
2024/03/21 03:36:40;;;;;;;62.55;15.25;;;;;;;3.87;100.00;101587.25;5045865;28;20063;-72
2024/03/21 03:39:06;;;;;;;48.55;13.15;;;;;;;3.87;100.00;101587.25;5046336;28;20033;-72
2024/03/21 03:41:31;;;;;;;55.20;14.25;;;;;;;3.92;100.00;101590.38;5045124;28;20555;-73
2024/03/21 03:43:58;;;;;;;56.13;14.25;;;;;;;3.81;100.00;101580.69;5042462;28;20081;-75
2024/03/21 03:46:23;;;;;;;52.72;13.90;;;;;;;3.86;100.00;101586.41;5041657;28;20029;-73
2024/03/21 03:48:49;;;;;;;51.45;13.15;;;;;;;3.85;100.00;101584.75;5039769;28;20404;-72
2024/03/21 03:51:14;;;;;;;41.30;10.52;;;;;;;3.89;100.00;101590.66;5041410;28;20037;-72
2024/03/21 03:53:40;;;;;;;56.72;13.65;;;;;;;3.92;100.00;101598.34;5042455;28;20080;-72
2024/03/21 03:56:05;;;;;;;47.20;13.05;;;;;;;3.91;100.00;101600.19;5042570;28;20049;-73
2024/03/21 03:58:31;;;;;;;49.63;13.80;;;;;;;3.92;100.00;101614.34;5048404;28;20033;-72
2024/03/21 04:00:57;;;;;;;44.05;12.38;;;;;;;3.92;100.00;101614.34;5052301;28;20060;-72
2024/03/21 04:03:22;;;;;;;52.67;12.90;;;;;;;3.94;100.00;101615.03;5053484;28;20436;-73
2024/03/21 04:06:02;;;;;;;50.90;13.43;;;;;;;3.95;100.00;101622.88;5053394;28;20056;-72
2024/03/21 04:08:28;;;;;;;49.28;12.85;;;;;;;3.97;100.00;101628.06;5052899;28;20029;-72
2024/03/21 04:10:58;;;;;;;56.30;13.75;;;;;;;3.97;100.00;101622.75;5047214;28;20215;-72
2024/03/21 04:13:24;;;;;;;50.03;12.93;;;;;;;3.98;100.00;101621.78;5041565;28;20158;-73
2024/03/21 04:15:56;;;;;;;48.47;12.70;;;;;;;3.96;100.00;101621.91;5041086;28;20104;-72
2024/03/21 04:18:23;;;;;;;50.92;13.30;;;;;;;3.95;100.00;101622.06;5042587;28;20112;-72
2024/03/21 04:20:51;;;;;;;45.33;12.65;;;;;;;3.96;100.00;101629.06;5052093;28;20032;-72
2024/03/21 04:23:17;;;;;;;42.28;12.23;;;;;;;3.91;100.00;101620.66;5044025;28;20678;-72
2024/03/21 04:25:42;;;;;;;43.75;11.50;;;;;;;3.81;100.00;101603.78;5039511;28;20127;-73
2024/03/21 04:28:08;;;;;;;35.53;7.47;;;;;;;3.87;100.00;101622.72;5041196;28;20341;-73
2024/03/21 04:30:33;;;;;;;26.05;7.50;;;;;;;3.86;100.00;101623.69;5044182;28;20025;-72
2024/03/21 04:32:58;;;;;;;28.02;7.63;;;;;;;3.85;100.00;101618.53;5043269;28;20485;-72
2024/03/21 04:35:24;;;;;;;27.60;7.70;;;;;;;3.86;100.00;101617.53;5043194;28;20029;-73
2024/03/21 04:37:49;;;;;;;30.92;8.18;;;;;;;3.86;100.00;101621.03;5044667;28;20451;-72
2024/03/21 04:40:15;;;;;;;28.83;8.65;;;;;;;3.86;100.00;101620.19;5043860;28;20029;-72
2024/03/21 04:42:40;;;;;;;31.35;8.15;;;;;;;3.84;100.00;101623.00;5043675;28;20377;-72
2024/03/21 04:45:06;;;;;;;27.08;8.30;;;;;;;3.83;100.00;101623.13;5063376;28;20082;-72
2024/03/21 04:47:34;;;;;;;34.22;8.75;;;;;;;3.83;100.00;101615.13;5063485;28;20119;-72
2024/03/21 04:49:59;;;;;;;34.45;7.53;;;;;;;3.76;100.00;101607.69;5060737;28;20035;-72
2024/03/21 04:52:28;;;;;;;24.83;7.10;;;;;;;3.76;100.00;101613.00;5061656;28;20045;-72
2024/03/21 04:54:53;;;;;;;26.08;5.95;;;;;;;3.73;100.00;101618.59;5063756;28;20044;-72
2024/03/21 04:57:19;;;;;;;26.20;6.00;;;;;;;3.70;100.00;101618.03;5063633;28;20025;-72
2024/03/21 04:59:44;;;;;;;20.33;5.20;;;;;;;3.76;100.00;101626.31;5063493;28;20045;-72
2024/03/21 05:02:10;;;;;;;21.35;6.28;;;;;;;3.69;100.00;101625.19;5064232;28;20032;-72
2024/03/21 05:04:36;;;;;;;32.70;6.50;;;;;;;3.61;100.00;101635.66;5062270;28;20044;-72
2024/03/21 05:07:01;;;;;;;22.35;5.72;;;;;;;3.59;100.00;101631.44;5058833;28;20033;-71
2024/03/21 05:09:27;;;;;;;21.55;6.15;;;;;;;3.61;100.00;101614.38;5063883;28;20032;-72
2024/03/21 05:11:52;;;;;;;27.90;6.18;;;;;;;3.70;100.00;101628.69;5062025;28;20021;-73
2024/03/21 05:14:17;;;;;;;26.60;6.43;;;;;;;3.69;100.00;101633.16;5062462;28;20029;-74
2024/03/21 05:16:46;;;;;;;30.48;7.22;;;;;;;3.72;100.00;101632.91;5062226;28;20632;-73
2024/03/21 05:19:11;;;;;;;29.40;7.55;;;;;;;3.68;100.00;101636.81;5058246;28;20035;-74
2024/03/21 05:21:37;;;;;;;33.63;8.15;;;;;;;3.74;100.00;101635.41;5061949;28;20044;-76
2024/03/21 05:24:03;;;;;;;21.45;6.72;;;;;;;3.72;100.00;101640.03;5061544;28;20027;-76
2024/03/21 05:26:30;;;;;;;32.15;7.68;;;;;;;3.70;100.00;101642.00;5061609;28;20100;-73
2024/03/21 05:28:55;;;;;;;23.25;7.03;;;;;;;3.68;100.00;101642.13;5060701;28;20098;-73
2024/03/21 05:31:22;;;;;;;31.30;8.00;;;;;;;3.63;100.00;101644.34;5059837;28;20111;-71
2024/03/21 05:33:47;;;;;;;29.23;7.75;;;;;;;3.66;100.00;101638.75;5061904;28;20037;-74
2024/03/21 05:36:14;;;;;;;28.45;7.93;;;;;;;3.67;100.00;101635.09;5063469;28;20055;-73
2024/03/21 05:38:40;;;;;;;20.50;7.07;;;;;;;3.62;100.00;101629.34;5061103;28;20098;-73
2024/03/21 05:41:06;;;;;;;26.73;7.25;;;;;;;3.51;100.00;101629.47;5060816;28;20041;-72
2024/03/21 05:43:32;;;;;;;28.92;6.35;;;;;;;3.35;100.00;101599.84;5059226;28;20025;-73
2024/03/21 05:45:57;;;;;;;18.02;5.90;;;;;;;3.48;100.00;101629.72;5058772;28;20025;-75
2024/03/21 05:48:23;;;;;;;21.55;6.03;;;;;;;3.48;100.00;101625.25;5058595;28;20087;-74
2024/03/21 05:50:48;;;;;;;27.30;7.03;;;;;;;3.45;100.00;101614.03;5058943;28;20044;-73
2024/03/21 05:53:14;;;;;;;29.40;7.20;;;;;;;3.53;100.00;101628.31;5060608;28;20456;-74
2024/03/21 05:55:39;;;;;;;25.75;6.72;;;;;;;3.58;100.00;101625.28;5058717;28;20132;-73
2024/03/21 05:58:04;;;;;;;23.92;7.25;;;;;;;3.56;100.00;101629.88;5055267;28;20021;-73
2024/03/21 06:00:30;;;;;;;32.15;7.72;;;;;;;3.47;100.00;101625.34;5059654;28;20108;-74
2024/03/21 06:02:55;;;;;;;25.20;7.35;;;;;;;3.42;100.00;101625.75;5059151;28;20040;-74
2024/03/21 06:05:20;;;;;;;24.50;7.25;;;;;;;3.52;100.00;101626.66;5061264;28;20112;-73
2024/03/21 06:07:46;;;;;;;25.75;7.45;;;;;;;3.59;100.00;101626.97;5057914;28;20029;-74
2024/03/21 06:10:11;;;;;;;23.13;7.32;;;;;;;3.52;100.00;101620.50;5059708;28;20025;-74
2024/03/21 06:12:37;;;;;;;24.20;7.05;;;;;;;3.55;100.00;101625.56;5056438;28;20391;-73
2024/03/21 06:15:02;;;;;;;23.88;6.63;;;;;;;3.58;100.00;101627.94;5058294;28;20059;-73
2024/03/21 06:17:28;;;;;;;23.73;6.78;;;;;;;3.65;100.00;101625.59;5060585;28;20037;-73
2024/03/21 06:19:53;;;;;;;25.25;6.45;;;;;;;3.59;100.00;101620.81;5065494;28;20028;-73
2024/03/21 06:22:18;;;;;;;26.00;6.65;;;;;;;3.61;100.00;101625.03;5066602;28;20021;-73
2024/03/21 06:24:44;;;;;;;19.33;6.38;;;;;;;3.63;100.00;101623.03;5068430;28;20510;-73
2024/03/21 06:27:09;;;;;;;23.60;6.28;;;;;;;3.68;100.00;101622.66;5069105;28;20101;-73
2024/03/21 06:29:35;;;;;;;24.77;7.43;;;;;;;3.67;100.00;101626.28;5069052;28;20033;-73
2024/03/21 06:32:00;;;;;;;22.35;7.13;;;;;;;3.78;100.00;101630.69;5060969;28;20037;-72
2024/03/21 06:34:26;;;;;;;23.10;7.10;;;;;;;3.80;100.00;101629.56;5061291;28;20048;-75
2024/03/21 06:36:51;;;;;;;18.60;6.82;;;;;;;3.75;100.00;101637.13;5062351;28;20039;-73
2024/03/21 06:39:19;;;;;;;21.50;6.63;;;;;;;3.54;100.00;101621.19;5072412;28;20009;-73
2024/03/21 06:41:45;;;;;;;21.05;6.60;;;;;;;3.69;100.00;101627.84;5065931;28;20029;-73
2024/03/21 06:44:10;;;;;;;21.98;7.10;;;;;;;3.81;100.00;101635.72;5061963;28;20091;-73
2024/03/21 06:46:38;;;;;;;24.42;8.32;;;;;;;3.71;100.00;101633.06;5062742;28;20511;-73
2024/03/21 06:49:07;;;;;;;26.63;8.55;;;;;;;3.67;100.00;101632.44;5061541;28;20033;-73
2024/03/21 06:51:32;;;;;;;24.40;8.80;;;;;;;3.72;100.00;101624.91;5044227;28;20044;-73
2024/03/21 06:53:58;;;;;;;28.40;8.60;;;;;;;3.73;100.00;101621.25;5062270;28;20041;-75
2024/03/21 06:56:23;;;;;;;25.75;8.13;;;;;;;3.57;100.00;101607.63;5060486;28;20032;-73
2024/03/21 06:58:49;;;;;;;30.35;9.02;;;;;;;3.65;100.00;101618.44;5058297;28;20480;-73
2024/03/21 07:01:16;;;;;;;26.02;9.95;;;;;;;3.64;100.00;101616.78;5056886;28;20423;-74
2024/03/21 07:03:42;;;;;;;27.48;9.70;;;;;;;3.56;100.00;101589.97;5056867;28;20112;-74
2024/03/21 07:06:07;;;;;;;27.63;9.45;;;;;;;3.74;100.00;101620.31;5057472;28;20064;-73
2024/03/21 07:08:33;;;;;;;26.52;9.70;;;;;;;3.71;100.00;101625.06;5061332;28;20032;-74
2024/03/21 07:10:58;;;;;;;25.63;9.23;;;;;;;3.74;100.00;101620.31;5061256;28;20032;-73
2024/03/21 07:13:23;;;;;;;29.27;10.25;;;;;;;3.77;100.00;101627.16;5061054;28;20029;-73
2024/03/21 07:15:49;;;;;;;21.40;8.80;;;;;;;3.76;100.00;101628.97;5063456;28;20029;-72
2024/03/21 07:18:14;;;;;;;22.95;8.38;;;;;;;3.61;100.00;101638.31;5062253;28;20428;-73
2024/03/21 07:20:40;;;;;;;28.50;8.10;;;;;;;3.58;100.00;101635.94;5059433;28;20082;-73
2024/03/21 07:23:09;;;;;;;28.40;9.15;;;;;;;3.67;100.00;101650.25;5059555;28;20086;-72
2024/03/21 07:25:35;;;;;;;28.63;9.57;;;;;;;3.60;100.00;101652.59;5062982;28;20033;-74
2024/03/21 07:28:01;;;;;;;25.92;8.98;;;;;;;3.59;100.00;101656.22;5062429;28;20025;-72
2024/03/21 07:30:27;;;;;;;21.33;8.60;;;;;;;3.68;100.00;101659.94;5062283;28;20025;-74
2024/03/21 07:32:52;;;;;;;20.52;9.10;;;;;;;3.73;100.00;101671.00;5061456;28;20029;-74
2024/03/21 07:35:18;;;;;;;25.42;9.48;;;;;;;3.72;100.00;101664.84;5061341;28;20028;-73
2024/03/21 07:37:43;;;;;;;25.83;9.00;;;;;;;3.71;100.00;101665.81;5060447;28;20033;-74
2024/03/21 07:40:09;;;;;;;24.30;9.82;;;;;;;3.68;100.00;101667.91;5061226;28;20045;-75
2024/03/21 07:42:34;;;;;;;18.67;8.05;;;;;;;3.71;100.00;101672.97;5061934;28;20025;-74
2024/03/21 07:45:03;;;;;;;19.35;8.07;;;;;;;3.71;100.00;101683.63;5060037;28;20087;-73
2024/03/21 07:47:29;;;;;;;22.98;8.25;;;;;;;3.70;100.00;101681.91;5060761;28;20195;-72
2024/03/21 07:49:54;;;;;;;16.17;7.93;;;;;;;3.62;100.00;101698.56;5059944;28;20048;-73
2024/03/21 07:52:23;;;;;;;19.48;7.82;;;;;;;3.64;100.00;101704.59;5059337;28;20100;-73
2024/03/21 07:54:48;;;;;;;18.10;7.75;;;;;;;3.73;100.00;101702.94;5059084;28;20098;-72
2024/03/21 07:57:14;;;;;;;22.88;8.20;;;;;;;3.75;100.00;101699.19;5061770;28;20026;-72
2024/03/21 07:59:39;;;;;;;21.15;8.07;;;;;;;3.80;100.00;101706.75;5064042;28;20078;-73
2024/03/21 08:02:05;;;;;;;23.65;8.43;;;;;;;3.74;100.00;101713.47;5062877;28;20032;-73
2024/03/21 08:04:31;;;;;;;18.85;7.93;;;;;;;3.77;100.00;101709.69;5062030;28;20024;-74
2024/03/21 08:06:57;;;;;;;18.88;7.85;;;;;;;3.82;100.00;101718.13;5062080;28;20029;-72
2024/03/21 08:09:23;;;;;;;18.35;8.07;;;;;;;3.80;100.00;101721.88;5062709;28;20056;-73
2024/03/21 08:11:49;;;;;;;17.45;8.05;;;;;;;3.78;100.00;101719.38;5063723;28;20024;-73
2024/03/21 08:14:14;;;;;;;18.58;8.18;;;;;;;3.82;100.00;101711.97;5064699;28;20033;-72
2024/03/21 08:16:40;;;;;;;18.50;8.50;;;;;;;3.90;100.00;101715.63;5063957;28;20044;-73
2024/03/21 08:19:05;;;;;;;18.27;8.32;;;;;;;3.90;100.00;101718.28;5063459;28;20108;-72
2024/03/21 08:21:31;;;;;;;19.48;9.02;;;;;;;3.90;100.00;101720.13;5064405;28;20059;-73
2024/03/21 08:23:56;;;;;;;26.13;8.73;;;;;;;3.90;100.00;101726.28;5063766;28;20088;-73
2024/03/21 08:26:22;;;;;;;21.88;8.70;;;;;;;3.90;100.00;101728.09;5063411;28;20055;-73
2024/03/21 08:28:47;;;;;;;17.63;8.70;;;;;;;3.91;100.00;101724.50;5064154;28;20029;-73
2024/03/21 08:31:12;;;;;;;18.63;8.32;;;;;;;3.89;100.00;101718.44;5059865;28;20048;-73
2024/03/21 08:33:38;;;;;;;15.75;8.43;;;;;;;3.90;100.00;101718.28;5060809;28;20037;-73
2024/03/21 08:36:04;;;;;;;20.40;8.82;;;;;;;3.89;100.00;101729.09;5061744;28;20033;-73
2024/03/21 08:38:33;;;;;;;19.55;8.38;;;;;;;3.90;100.00;101726.28;5067252;28;20442;-73
2024/03/21 08:40:58;;;;;;;19.55;8.25;;;;;;;3.92;100.00;101726.16;5067938;28;20043;-73
2024/03/21 08:43:24;;;;;;;18.02;7.60;;;;;;;3.93;100.00;101725.19;5066090;28;20024;-73
2024/03/21 08:45:50;;;;;;;14.77;7.38;;;;;;;4.00;100.00;101734.31;5067049;28;20017;-72
2024/03/21 08:48:16;;;;;;;17.85;7.03;;;;;;;3.93;100.00;101715.38;5065212;28;20400;-72
2024/03/21 08:50:45;;;;;;;15.35;6.68;;;;;;;4.01;100.00;101717.38;5042237;28;20099;-73
2024/03/21 08:53:10;;;;;;;14.60;6.82;;;;;;;4.11;100.00;101742.22;5060164;28;20088;-73
2024/03/21 08:55:36;;;;;;;17.60;6.60;;;;;;;4.15;100.00;101748.13;5059712;28;20525;-73
2024/03/21 08:58:02;;;;;;;16.73;6.22;;;;;;;4.12;100.00;101749.25;5059015;28;20036;-73
2024/03/21 09:00:28;;;;;;;16.02;5.80;;;;;;;4.04;100.00;101748.22;5058430;28;20080;-73
2024/03/21 09:02:53;;;;;;;12.80;4.93;;;;;;;4.02;100.00;101745.69;5058791;28;20033;-73
2024/03/21 09:05:18;;;;;;;13.38;5.00;;;;;;;4.02;100.00;101755.50;5059076;28;20029;-73
2024/03/21 09:07:44;;;;;;;11.27;5.18;;;;;;;4.00;100.00;101752.97;5059903;28;20045;-73
2024/03/21 09:10:10;;;;;;;15.00;5.05;;;;;;;4.02;100.00;101750.19;5060412;28;20032;-73
2024/03/21 09:12:36;;;;;;;11.55;4.38;;;;;;;3.97;100.00;101759.41;5069320;28;20089;-73
2024/03/21 09:15:02;;;;;;;12.77;4.80;;;;;;;3.93;100.00;101752.66;5072086;28;20025;-74
2024/03/21 09:17:27;;;;;;;14.98;4.50;;;;;;;3.89;100.00;101745.91;5070456;28;20064;-73
2024/03/21 09:19:53;;;;;;;13.32;3.90;;;;;;;3.92;100.00;101744.81;5071842;28;20032;-74
2024/03/21 09:22:18;;;;;;;11.80;3.88;;;;;;;3.94;100.00;101742.84;5070707;28;20090;-73
2024/03/21 09:24:46;;;;;;;10.00;3.90;;;;;;;4.02;100.00;101755.50;5059629;28;20053;-73
2024/03/21 09:27:12;;;;;;;11.45;4.05;;;;;;;4.04;100.00;101759.72;5060896;28;20458;-73
2024/03/21 09:29:38;;;;;;;8.00;3.35;;;;;;;3.97;100.00;101755.88;5058647;28;20028;-73
2024/03/21 09:32:03;;;;;;;10.20;3.90;;;;;;;3.93;100.00;101757.97;5059656;28;20063;-73
2024/03/21 09:34:29;;;;;;;6.63;3.30;;;;;;;3.87;100.00;101758.50;5058832;28;20453;-74
2024/03/21 09:36:54;;;;;;;6.35;3.67;;;;;;;3.88;100.00;101756.69;5059135;28;20107;-74
2024/03/21 09:39:20;;;;;;;9.70;3.55;;;;;;;3.88;100.00;101765.53;5059082;28;20116;-73
2024/03/21 09:41:47;;;;;;;11.82;3.30;;;;;;;3.84;100.00;101757.91;5058975;28;20475;-73
2024/03/21 09:44:14;;;;;;;8.93;3.15;;;;;;;3.81;100.00;101768.81;5057363;28;20025;-74
2024/03/21 09:46:42;;;;;;;6.38;3.30;;;;;;;3.80;100.00;101761.81;5058475;28;20082;-73
2024/03/21 09:49:11;;;;;;;8.85;3.65;;;;;;;3.75;100.00;101770.22;5059115;28;20057;-75
2024/03/21 09:51:39;;;;;;;6.93;3.58;;;;;;;3.69;100.00;101774.22;5058606;28;20032;-74
2024/03/21 09:54:05;;;;;;;12.10;3.80;;;;;;;3.66;100.00;101785.13;5058425;28;20356;-73
2024/03/21 09:56:31;;;;;;;9.10;3.40;;;;;;;3.64;100.00;101784.44;5058627;28;20021;-73
2024/03/21 09:58:56;;;;;;;5.85;3.10;;;;;;;3.56;100.00;101775.41;5058640;28;20029;-74
2024/03/21 10:01:23;;;;;;;7.82;3.65;;;;;;;3.60;100.00;101787.47;5057790;28;20115;-73
2024/03/21 10:03:56;;;;;;;6.60;3.63;;;;;;;3.58;100.00;101797.44;5058297;28;20031;-75
2024/03/21 10:06:21;;;;;;;6.95;3.42;;;;;;;3.57;100.00;101793.91;5058615;28;20086;-73
2024/03/21 10:08:47;;;;;;;5.57;3.33;;;;;;;3.56;100.00;101804.69;5057248;28;20495;-73
2024/03/21 10:11:12;;;;;;;4.50;3.00;;;;;;;3.50;100.00;101795.38;5057835;28;20503;-73
2024/03/21 10:13:41;;;;;;;4.53;2.75;;;;;;;3.52;100.00;101799.63;5062714;28;20036;-75
2024/03/21 10:16:12;;;;;;;3.67;2.00;;;;;;;3.59;100.00;101807.09;5070429;28;20036;-73
2024/03/21 10:18:44;;;;;;;2.42;1.98;;;;;;;3.56;100.00;101810.84;5059843;28;20055;-73
2024/03/21 10:21:13;;;;;;;3.30;2.10;;;;;;;3.53;100.00;101806.63;5053299;28;20044;-73
2024/03/21 10:23:39;;;;;;;3.08;1.83;;;;;;;3.52;100.00;101806.75;5057760;28;20052;-73
2024/03/21 10:26:13;;;;;;;2.28;1.60;;;;;;;3.35;100.00;101796.69;5057893;28;20035;-73
2024/03/21 10:28:38;;;;;;;2.67;1.63;;;;;;;3.53;100.00;101798.63;5058725;28;20033;-72
2024/03/21 10:31:10;;;;;;;2.78;1.65;;;;;;;3.68;100.00;101780.53;5057441;28;20029;-73
2024/03/21 10:33:37;;;;;;;2.03;1.30;;;;;;;3.97;100.00;101791.38;5057585;28;20324;-73
2024/03/21 10:36:03;;;;;;;1.83;1.42;;;;;;;4.09;100.00;101797.44;5057925;28;20028;-72
2024/03/21 10:38:28;;;;;;;2.45;1.27;;;;;;;4.27;100.00;101780.84;5057589;28;20399;-73
2024/03/21 10:40:57;;;;;;;1.10;1.00;;;;;;;4.51;100.00;101768.03;5055301;28;20100;-73
2024/03/21 10:43:26;;;;;;;1.40;1.00;;;;;;;4.75;100.00;101769.50;5056894;28;20108;-73
2024/03/21 10:45:52;;;;;;;1.23;1.00;;;;;;;4.86;100.00;101766.69;5057005;28;20060;-73
2024/03/21 10:48:32;;;;;;;1.23;0.93;;;;;;;4.80;100.00;101775.25;5052230;28;20124;-73
2024/03/21 10:51:08;;;;;;;1.60;1.00;;;;;;;5.13;100.00;101763.34;5057013;28;20029;-74
2024/03/21 10:53:35;;;;;;;1.73;1.08;;;;;;;5.15;100.00;101759.56;5056545;28;20516;-72
2024/03/21 10:56:06;;;;;;;1.27;0.85;;;;;;;5.37;100.00;101768.28;5059627;28;20017;-73
2024/03/21 10:58:31;;;;;;;1.08;0.77;;;;;;;4.93;100.00;101683.34;5060813;28;20074;-73
2024/03/21 11:00:56;;;;;;;1.00;0.90;;;;;;;5.48;100.00;101757.44;5054803;28;20116;-73
2024/03/21 11:03:22;;;;;;;1.73;0.90;;;;;;;5.34;100.00;101755.22;5056816;28;20437;-73
2024/03/21 11:05:55;;;;;;;0.85;0.80;;;;;;;4.87;100.00;101669.72;5067024;28;20037;-73
2024/03/21 11:08:26;;;;;;;1.27;0.98;;;;;;;5.59;100.00;101740.41;5066799;28;20040;-73
2024/03/21 11:10:54;;;;;;;0.98;0.80;;;;;;;5.62;100.00;101748.97;5057985;28;20024;-73
2024/03/21 11:13:20;;;;;;;1.17;0.80;;;;;;;5.44;100.00;101750.72;5054393;28;20052;-73